• Join FlightAware (Why Join?)
  • Login
  • US Flag 
01:47PM EDT


 

Airport Tracker/Info


-or-


 

Live Flight TrackerFlight Track Log ✈ CTL15 ✈ 30-Apr-2013 ✈ KMGY - KBKL

Flight Track Log - Related Links

Times and Time Zones

All times are in EDT time to prevent confusion due to time zone crossing. See the CTL15 flight status page for this flight to view local times or setup timezone preferences in your user account.

Time Position Orientation Groundspeed Altitude Reporting Facility
EDT Latitude Longitude Course Direction KTS MPH feet Rate Location/Type
07:42PM 39.6025 -84.1697 47° Northeast 154 177 2,500  Level Indianapolis Center
07:43PM 39.6403 -84.1178 47° Northeast 152 175 3,200 540 Climbing Indianapolis Center
07:45PM 39.6733 -84.0703 48° Northeast 152 175 3,900 540 Climbing Indianapolis Center
07:45PM 39.6992 -84.0333 48° Northeast 156 180 4,300 480 Climbing Indianapolis Center
07:47PM 39.7336 -83.9886 45° Northeast 154 177 5,000 540 Climbing Indianapolis Center
07:47PM 39.7600 -83.9517 47° Northeast 159 183 5,500 480 Climbing Indianapolis Center
07:48PM 39.7639 -83.9475 39° Northeast 155 178 5,500 480 Level Indianapolis Center
07:48PM 39.7903 -83.9122 46° Northeast 156 180 6,000 480 Climbing Indianapolis Center
07:49PM 39.7953 -83.9064 42° Northeast 157 181 6,000 420 Level Indianapolis Center
07:49PM 39.8183 -83.8750 46° Northeast 149 171 6,400 480 Climbing Indianapolis Center
07:50PM 39.8289 -83.8594 49° Northeast 154 177 6,500 300 Climbing Indianapolis Center
07:50PM 39.8400 -83.8369 57° Northeast 148 170 6,700 480 Climbing Indianapolis Center
07:51PM 39.8550 -83.8181 44° Northeast 149 171 7,000 300 Climbing Indianapolis Center
07:51PM 39.8744 -83.7978 39° Northeast 158 182 7,100  Climbing Indianapolis Center
07:52PM 39.8875 -83.7797 47° Northeast 152 175 7,000 -120 Descending Indianapolis Center
07:52PM 39.9067 -83.7583 41° Northeast 168 193 7,000  Level Indianapolis Center
07:53PM 39.9236 -83.7383 42° Northeast 162 186 7,000  Level Indianapolis Center
07:53PM 39.9389 -83.7189 44° Northeast 169 194 7,000  Level Indianapolis Center
07:54PM 39.9589 -83.6961 41° Northeast 167 192 7,000  Level Indianapolis Center
07:54PM 39.9756 -83.6772 41° Northeast 169 194 7,000  Level Indianapolis Center
07:55PM 39.9947 -83.6544 42° Northeast 169 194 7,000  Level Indianapolis Center
07:55PM 40.0122 -83.6328 43° Northeast 171 197 7,000  Level Indianapolis Center
07:56PM 40.0303 -83.6119 41° Northeast 170 196 7,000  Level Indianapolis Center
07:56PM 40.0467 -83.5908 45° Northeast 170 196 7,000  Level Indianapolis Center
07:57PM 40.0644 -83.5681 44° Northeast 170 196 7,000  Level Indianapolis Center
07:57PM 40.0794 -83.5458 49° Northeast 169 194 7,000  Level Indianapolis Center
07:58PM 40.0989 -83.5247 40° Northeast 170 196 7,000  Level Indianapolis Center
07:58PM 40.1158 -83.5067 39° Northeast 170 196 7,000  Level Indianapolis Center
07:59PM 40.1342 -83.4831 45° Northeast 169 194 7,000  Level Indianapolis Center
07:59PM 40.1503 -83.4644 41° Northeast 169 194 7,000  Level Indianapolis Center
08:00PM 40.1689 -83.4403 45° Northeast 169 194 7,000  Level Indianapolis Center
08:00PM 40.1847 -83.4222 41° Northeast 168 193 7,000  Level Indianapolis Center
08:01PM 40.2050 -83.3997 40° Northeast 170 196 7,000  Level Indianapolis Center
08:01PM 40.2189 -83.3828 43° Northeast 170 196 7,000  Level Indianapolis Center
08:02PM 40.2461 -83.3511 42° Northeast 170 196 7,000  Level Indianapolis Center
08:02PM 40.2553 -83.3433 33° Northeast 169 194 7,000  Level Indianapolis Center
08:03PM 40.2811 -83.3125 42° Northeast 170 196 7,000  Level Indianapolis Center
08:04PM 40.3261 -83.2833 26° Northeast 316 364 7,000  Level Indianapolis Center
08:05PM 40.3656 -83.2472 35° Northeast 183 211 7,000  Level Indianapolis Center
08:06PM 40.4047 -83.2108 35° Northeast 171 197 7,000  Level Indianapolis Center
08:07PM 40.4408 -83.1692 41° Northeast 171 197 7,000  Level Indianapolis Center
08:08PM 40.4750 -83.1256 44° Northeast 170 196 7,000  Level Indianapolis Center
08:09PM 40.5081 -83.0814 45° Northeast 168 193 7,000  Level Indianapolis Center
08:10PM 40.5425 -83.0361 45° Northeast 166 191 7,000  Level Indianapolis Center
08:11PM 40.5753 -82.9919 46° Northeast 166 191 7,100  Climbing Indianapolis Center
08:12PM 40.6092 -82.9497 43° Northeast 167 192 7,100 -60 Level Indianapolis Center
08:13PM 40.6419 -82.9047 46° Northeast 168 193 7,000 -60 Descending Indianapolis Center
08:15PM 40.6750 -82.8577 47° Northeast  Level FlightAware Approximate
08:15PM 40.7147 -82.8086 47° Northeast 169 194 7,000  Level Indianapolis Center
08:17PM 40.7475 -82.7633 46° Northeast 169 194 7,000  Level Indianapolis Center
08:18PM 40.7794 -82.7161 48° Northeast 170 196 7,000  Level Indianapolis Center